CheckWX is a tool to help pilots better visualize weather data.  It is not intended as a substitute for an official pre-flight weather briefing.

10:43:57 UTC

KVNY TAF
Van Nuys Airport
Van Nuys, California, USA
KVNY 180531Z 1806/1906 VRB03KT P6SM SCT250 FM182000 14009KT P6SM SCT250 FM190300 VRB03KT P6SM SCT250

Apr-18@
06:00 UTC

Apr-18 @ 06:00 UTC

Apr-18@
20:00 UTC

Apr-18 @ 20:00 UTC

KVNY 180531Z 1806/1906 VRB03KT P6SM SCT250
Wind
  • Variable at 3 KTS
Cloud Levels
  • Scattered at 25,000' AGL

Apr-18@
20:00 UTC

Apr-18 @ 20:00 UTC

Apr-19@
03:00 UTC

Apr-19 @ 03:00 UTC

FM182000 14009KT P6SM SCT250

From

From Standard forecast or significant change

Wind
  • 140° at 9 KTS
Cloud Levels
  • Scattered at 25,000' AGL

Apr-19@
03:00 UTC

Apr-19 @ 03:00 UTC

Apr-19@
06:00 UTC

Apr-19 @ 06:00 UTC

FM190300 VRB03KT P6SM SCT250

From

From Standard forecast or significant change

Wind
  • Variable at 3 KTS
Cloud Levels
  • Scattered at 25,000' AGL